createdAt,value
2022-08-18T00:00:02.490Z,52.00
2022-08-18T00:02:30.855Z,52.00
2022-08-18T00:04:57.527Z,51.80
2022-08-18T00:07:24.817Z,52.20
2022-08-18T00:09:51.280Z,52.00
2022-08-18T00:12:17.721Z,52.40
2022-08-18T00:14:44.185Z,52.40
2022-08-18T00:17:10.629Z,52.00
2022-08-18T00:19:46.257Z,52.90
2022-08-18T00:22:15.189Z,52.70
2022-08-18T00:24:48.336Z,52.90
2022-08-18T00:27:15.610Z,53.00
2022-08-18T00:29:42.070Z,52.20
2022-08-18T00:32:08.516Z,53.00
2022-08-18T00:34:34.966Z,53.20
2022-08-18T00:41:55.458Z,52.10
2022-08-18T00:44:21.930Z,53.00
2022-08-18T00:46:48.384Z,53.00
2022-08-18T00:49:14.844Z,52.20
2022-08-18T00:51:41.289Z,52.10
2022-08-18T00:54:07.744Z,52.70
2022-08-18T00:56:34.197Z,53.10
2022-08-18T00:59:00.762Z,53.00
2022-08-18T01:01:27.307Z,52.30
2022-08-18T01:03:53.837Z,53.10
2022-08-18T01:08:47.299Z,52.90
2022-08-18T01:11:13.777Z,53.20
2022-08-18T01:13:40.253Z,53.10
2022-08-18T01:16:06.728Z,53.10
2022-08-18T01:18:33.705Z,52.30
2022-08-18T01:21:00.196Z,53.30
2022-08-18T01:23:26.639Z,52.20
2022-08-18T01:25:53.153Z,53.20
2022-08-18T01:28:19.608Z,52.00
2022-08-18T01:30:46.075Z,52.20
2022-08-18T01:33:12.544Z,52.10
2022-08-18T01:35:41.872Z,52.10
2022-08-18T01:38:08.540Z,53.20
2022-08-18T01:41:24.064Z,52.30
2022-08-18T01:43:21.416Z,53.00
2022-08-18T01:45:47.930Z,53.00
2022-08-18T01:48:14.399Z,51.80
2022-08-18T01:50:40.852Z,52.10
2022-08-18T01:55:34.293Z,52.80
2022-08-18T01:58:00.739Z,52.30
2022-08-18T02:00:27.194Z,52.40
2022-08-18T02:02:57.247Z,52.10
2022-08-18T02:05:28.247Z,53.10
2022-08-18T02:07:57.860Z,52.10
2022-08-18T02:10:24.324Z,52.40
2022-08-18T02:12:50.779Z,53.30
2022-08-18T02:15:17.241Z,52.10
2022-08-18T02:17:43.703Z,53.10
2022-08-18T02:20:10.187Z,52.30
2022-08-18T02:25:03.626Z,52.60
2022-08-18T02:27:30.080Z,52.40
2022-08-18T02:32:24.097Z,52.50
2022-08-18T02:34:53.322Z,53.30
2022-08-18T02:37:19.811Z,52.90
2022-08-18T02:39:46.298Z,52.00
2022-08-18T02:42:12.853Z,53.00
2022-08-18T02:47:06.300Z,52.40
2022-08-18T02:49:32.777Z,52.20
2022-08-18T02:51:59.255Z,52.20
2022-08-18T02:54:25.731Z,53.20
2022-08-18T02:56:52.183Z,52.70
2022-08-18T02:59:18.625Z,52.40
2022-08-18T03:01:45.188Z,52.20
2022-08-18T03:04:11.794Z,52.10
2022-08-18T03:06:38.247Z,52.20
2022-08-18T03:09:04.714Z,52.10
2022-08-18T03:11:31.234Z,52.20
2022-08-18T03:13:57.674Z,52.40
2022-08-18T03:16:24.123Z,52.70
2022-08-18T03:18:50.567Z,52.30
2022-08-18T03:21:17.018Z,53.40
2022-08-18T03:23:43.835Z,52.80
2022-08-18T03:26:23.799Z,52.20
2022-08-18T03:28:50.246Z,52.30
2022-08-18T03:31:16.705Z,53.40
2022-08-18T03:33:43.177Z,52.70
2022-08-18T03:36:09.658Z,52.90
2022-08-18T03:38:36.136Z,52.30
2022-08-18T03:41:02.593Z,52.20
2022-08-18T03:43:50.884Z,52.50
2022-08-18T03:46:15.485Z,52.70
2022-08-18T03:48:41.930Z,52.00
2022-08-18T03:51:08.390Z,52.20
2022-08-18T03:53:34.837Z,52.90
2022-08-18T03:56:01.319Z,52.60
2022-08-18T03:58:27.814Z,52.10
2022-08-18T04:00:54.311Z,52.40
2022-08-18T04:03:20.791Z,52.30
2022-08-18T04:05:47.283Z,52.30
2022-08-18T04:13:07.711Z,53.40
2022-08-18T04:15:34.189Z,53.40
2022-08-18T04:18:04.047Z,52.50
2022-08-18T04:20:30.831Z,52.20
2022-08-18T04:25:25.150Z,53.30
2022-08-18T04:27:53.147Z,52.30
2022-08-18T04:32:46.701Z,52.30
2022-08-18T04:35:14.234Z,52.30
2022-08-18T04:37:41.945Z,52.90
2022-08-18T04:40:08.514Z,53.10
2022-08-18T04:42:35.014Z,52.80
2022-08-18T04:45:09.520Z,53.10
2022-08-18T04:47:36.000Z,53.40
2022-08-18T04:50:02.486Z,54.10
2022-08-18T04:52:38.787Z,53.50
2022-08-18T04:55:07.448Z,53.70
2022-08-18T04:57:35.107Z,54.30
2022-08-18T05:00:01.781Z,54.00
2022-08-18T05:02:28.241Z,54.30
2022-08-18T05:04:54.718Z,54.50
2022-08-18T05:09:48.169Z,55.30
2022-08-18T05:12:14.652Z,54.40
2022-08-18T05:17:08.121Z,55.40
2022-08-18T05:19:34.600Z,55.70
2022-08-18T05:22:02.989Z,54.70
2022-08-18T05:24:36.789Z,55.10
2022-08-18T05:29:30.883Z,54.40
2022-08-18T05:32:01.212Z,55.60
2022-08-18T05:34:27.655Z,54.80
2022-08-18T05:39:21.100Z,54.80
2022-08-18T05:41:47.542Z,55.60
2022-08-18T05:46:41.005Z,54.70
2022-08-18T05:49:07.483Z,55.30
2022-08-18T05:51:33.957Z,55.10
2022-08-18T05:54:00.406Z,55.70
2022-08-18T05:56:26.860Z,55.60
2022-08-18T05:58:53.349Z,56.00
2022-08-18T06:01:19.811Z,55.80
2022-08-18T06:03:46.827Z,55.00
2022-08-18T06:08:40.883Z,56.40
2022-08-18T06:13:34.349Z,55.80
2022-08-18T06:16:00.816Z,56.90
2022-08-18T06:18:27.276Z,55.30
2022-08-18T06:23:20.733Z,56.00
2022-08-18T06:25:47.189Z,55.80
2022-08-18T06:33:07.691Z,56.10
2022-08-18T06:35:34.167Z,56.10
2022-08-18T06:38:00.620Z,56.10
2022-08-18T06:40:27.180Z,56.70
2022-08-18T06:42:53.739Z,56.50
2022-08-18T06:45:21.200Z,55.80
2022-08-18T06:47:47.660Z,56.20
2022-08-18T06:52:41.105Z,56.70
2022-08-18T06:57:34.701Z,55.90
2022-08-18T07:00:01.264Z,56.20
2022-08-18T07:02:27.741Z,56.10
2022-08-18T07:07:28.836Z,57.30
2022-08-18T07:10:06.923Z,56.30
2022-08-18T07:12:33.509Z,56.30
2022-08-18T07:14:59.981Z,56.90
2022-08-18T07:17:43.142Z,57.40
2022-08-18T07:20:10.452Z,57.00
2022-08-18T07:22:39.476Z,57.00
2022-08-18T07:25:06.229Z,57.20
2022-08-18T07:29:59.678Z,56.90
2022-08-18T07:32:26.171Z,56.80
2022-08-18T07:34:53.152Z,57.80
2022-08-18T07:37:21.307Z,57.20
2022-08-18T07:39:49.393Z,58.40
2022-08-18T07:42:37.306Z,57.50
2022-08-18T07:45:04.023Z,58.20
2022-08-18T07:47:30.473Z,58.50
2022-08-18T07:50:16.977Z,58.30
2022-08-18T07:52:46.970Z,58.70
2022-08-18T07:55:13.738Z,58.00
2022-08-18T07:57:42.342Z,58.20
2022-08-18T08:00:35.015Z,58.90
2022-08-18T08:07:55.862Z,59.10
2022-08-18T08:10:22.541Z,59.00
2022-08-18T08:12:48.988Z,58.80
2022-08-18T08:15:15.450Z,58.40
2022-08-18T08:17:41.941Z,58.80
2022-08-18T08:22:35.404Z,58.90
2022-08-18T08:25:01.911Z,59.00
2022-08-18T08:27:28.356Z,58.70
2022-08-18T08:29:54.831Z,59.50
2022-08-18T08:32:21.311Z,59.40
2022-08-18T08:34:47.772Z,59.10
2022-08-18T08:37:14.235Z,58.60
2022-08-18T08:42:30.799Z,58.70
2022-08-18T08:45:01.287Z,58.90
2022-08-18T08:50:00.976Z,58.80
2022-08-18T08:52:27.694Z,58.70
2022-08-18T08:54:54.179Z,58.50
2022-08-18T08:57:20.639Z,57.60
2022-08-18T08:59:47.096Z,57.50
2022-08-18T09:05:08.508Z,57.80
2022-08-18T09:07:37.953Z,58.30
2022-08-18T09:10:04.939Z,58.00
2022-08-18T09:12:32.397Z,57.60
2022-08-18T09:20:00.600Z,57.80
2022-08-18T09:22:27.324Z,57.40
2022-08-18T09:24:53.893Z,57.50
2022-08-18T09:27:20.364Z,57.90
2022-08-18T09:29:46.839Z,57.90
2022-08-18T09:32:13.464Z,57.20
2022-08-18T09:37:07.680Z,58.20
2022-08-18T09:39:34.234Z,58.10
2022-08-18T09:42:00.752Z,58.10
2022-08-18T09:44:29.857Z,58.00
2022-08-18T09:46:57.560Z,58.30
2022-08-18T09:51:51.154Z,56.90
2022-08-18T09:54:21.262Z,56.90
2022-08-18T09:56:53.556Z,57.90
2022-08-18T09:59:21.056Z,58.10
2022-08-18T10:04:21.873Z,57.10
2022-08-18T10:09:27.239Z,56.90
2022-08-18T10:14:29.966Z,58.00
2022-08-18T10:19:46.242Z,57.90
2022-08-18T10:22:15.938Z,58.10
2022-08-18T10:24:42.525Z,57.50
2022-08-18T10:29:36.412Z,57.80
2022-08-18T10:32:03.329Z,57.30
2022-08-18T10:34:29.777Z,57.30
2022-08-18T10:39:25.744Z,58.50
2022-08-18T10:44:29.365Z,56.90
2022-08-18T10:49:23.328Z,57.70
2022-08-18T10:51:59.451Z,57.10
2022-08-18T10:54:29.277Z,58.30
2022-08-18T10:56:55.829Z,57.80
2022-08-18T10:59:28.613Z,58.60
2022-08-18T11:04:34.811Z,57.70
2022-08-18T11:07:03.567Z,57.80
2022-08-18T11:09:34.445Z,57.00
2022-08-18T11:14:47.379Z,57.50
2022-08-18T11:17:16.713Z,57.40
2022-08-18T11:19:43.255Z,56.70
2022-08-18T11:22:10.961Z,57.00
2022-08-18T11:24:42.830Z,57.80
2022-08-18T11:27:15.275Z,57.90
2022-08-18T11:29:42.218Z,56.30
2022-08-18T11:32:11.017Z,57.60
2022-08-18T11:34:38.362Z,57.40
2022-08-18T11:37:09.143Z,57.50
2022-08-18T11:39:38.174Z,56.30
2022-08-18T11:42:04.879Z,57.50
2022-08-18T11:44:31.337Z,57.30
2022-08-18T11:46:58.016Z,57.30
2022-08-18T11:49:26.493Z,57.30
2022-08-18T11:51:53.239Z,57.20
2022-08-18T11:54:19.713Z,57.20
2022-08-18T11:56:46.164Z,57.20
2022-08-18T12:01:42.244Z,56.90
2022-08-18T12:04:08.898Z,57.20
2022-08-18T12:06:37.532Z,57.40
2022-08-18T12:09:09.596Z,57.40
2022-08-18T12:11:42.939Z,57.00
2022-08-18T12:14:32.310Z,57.00
2022-08-18T12:22:11.928Z,56.90
2022-08-18T12:27:25.429Z,55.60
2022-08-18T12:29:58.431Z,56.80
2022-08-18T12:32:49.152Z,57.10
2022-08-18T12:35:11.388Z,56.50
2022-08-18T12:40:24.404Z,56.00
2022-08-18T12:42:53.089Z,56.60
2022-08-18T12:45:22.378Z,56.90
2022-08-18T12:47:48.896Z,56.60
2022-08-18T12:50:15.351Z,57.00
2022-08-18T12:52:42.096Z,56.90
2022-08-18T12:55:21.593Z,55.90
2022-08-18T12:57:52.538Z,56.90
2022-08-18T13:03:08.468Z,57.10
2022-08-18T13:05:35.009Z,56.10
2022-08-18T13:08:04.331Z,55.90
2022-08-18T13:10:42.849Z,56.50
2022-08-18T13:13:12.753Z,57.00
2022-08-18T13:15:39.248Z,56.90
2022-08-18T13:18:22.194Z,57.00
2022-08-18T13:20:55.555Z,56.90
2022-08-18T13:23:25.142Z,56.80
2022-08-18T13:25:52.134Z,55.70
2022-08-18T13:28:30.539Z,55.50
2022-08-18T13:30:57.263Z,56.20
2022-08-18T13:33:35.016Z,55.20
2022-08-18T13:36:11.291Z,55.40
2022-08-18T13:38:37.737Z,54.90
2022-08-18T13:41:04.260Z,55.00
2022-08-18T13:43:34.268Z,55.60
2022-08-18T13:46:01.097Z,55.70
2022-08-18T13:50:56.061Z,54.10
2022-08-18T13:53:22.831Z,53.90
2022-08-18T13:55:51.202Z,53.90
2022-08-18T14:00:47.752Z,53.10
2022-08-18T14:03:20.374Z,54.60
2022-08-18T14:06:01.346Z,54.20
2022-08-18T14:08:28.314Z,53.90
2022-08-18T14:10:54.769Z,54.30
2022-08-18T14:13:25.082Z,54.50
2022-08-18T14:15:53.833Z,54.60
2022-08-18T14:18:21.527Z,54.30
2022-08-18T14:20:55.219Z,54.10
2022-08-18T14:25:59.994Z,54.30
2022-08-18T14:28:26.719Z,54.40
2022-08-18T14:30:54.623Z,53.90
2022-08-18T14:33:21.643Z,54.70
2022-08-18T14:36:07.077Z,53.70
2022-08-18T14:38:36.116Z,53.60
2022-08-18T14:43:29.560Z,55.00
2022-08-18T14:46:16.033Z,53.40
2022-08-18T14:48:42.627Z,54.70
2022-08-18T14:51:14.134Z,54.60
2022-08-18T14:53:40.605Z,54.80
2022-08-18T14:56:08.307Z,55.00
2022-08-18T15:01:03.445Z,53.80
2022-08-18T15:03:34.989Z,54.60
2022-08-18T15:06:04.897Z,54.70
2022-08-18T15:08:31.720Z,53.80
2022-08-18T15:10:58.618Z,54.90
2022-08-18T15:13:26.346Z,54.10
2022-08-18T15:18:22.502Z,54.60
2022-08-18T15:20:49.497Z,55.00
2022-08-18T15:25:44.265Z,54.00
2022-08-18T15:33:10.018Z,55.20
2022-08-18T15:35:44.184Z,54.70
2022-08-18T15:38:10.905Z,54.30
2022-08-18T15:40:41.675Z,54.70
2022-08-18T15:45:37.223Z,54.70
2022-08-18T15:50:39.134Z,54.40
2022-08-18T15:53:07.906Z,54.40
2022-08-18T15:55:35.952Z,54.10
2022-08-18T15:58:03.983Z,53.90
2022-08-18T16:00:37.684Z,53.50
2022-08-18T16:05:31.744Z,54.60
2022-08-18T16:07:58.425Z,54.80
2022-08-18T16:10:25.126Z,54.90
2022-08-18T16:12:51.600Z,53.80
2022-08-18T16:15:21.201Z,54.90
2022-08-18T16:17:48.078Z,55.20
2022-08-18T16:20:14.587Z,54.90
2022-08-18T16:22:41.033Z,55.20
2022-08-18T16:27:34.504Z,55.50
2022-08-18T16:30:00.972Z,55.50
2022-08-18T16:32:27.456Z,54.10
2022-08-18T16:37:20.942Z,55.30
2022-08-18T16:39:47.469Z,54.40
2022-08-18T16:42:13.925Z,54.90
2022-08-18T16:44:40.361Z,55.30
2022-08-18T16:49:33.828Z,55.20
2022-08-18T16:52:00.295Z,54.40
2022-08-18T16:59:20.790Z,55.20
2022-08-18T17:01:48.845Z,55.20
2022-08-18T17:04:20.620Z,55.40
2022-08-18T17:06:47.977Z,55.10
2022-08-18T17:09:14.586Z,55.00
2022-08-18T17:11:48.076Z,55.00
2022-08-18T17:16:46.279Z,55.10
2022-08-18T17:19:12.725Z,54.30
2022-08-18T17:21:39.209Z,54.30
2022-08-18T17:24:05.683Z,54.60
2022-08-18T17:26:32.362Z,55.20
2022-08-18T17:31:25.811Z,55.40
2022-08-18T17:36:19.273Z,55.30
2022-08-18T17:38:45.731Z,55.30
2022-08-18T17:41:12.213Z,55.60
2022-08-18T17:48:37.029Z,55.00
2022-08-18T17:51:03.508Z,56.10
2022-08-18T17:53:29.982Z,56.00
2022-08-18T17:55:56.452Z,55.80
2022-08-18T17:58:22.946Z,56.20
2022-08-18T18:03:16.438Z,55.90
2022-08-18T18:05:42.895Z,55.10
2022-08-18T18:10:40.194Z,56.20
2022-08-18T18:13:09.454Z,56.30
2022-08-18T18:15:35.899Z,56.40
2022-08-18T18:18:02.345Z,55.80
2022-08-18T18:20:28.797Z,56.00
2022-08-18T18:22:55.228Z,56.50
2022-08-18T18:25:21.694Z,56.40
2022-08-18T18:32:59.656Z,56.30
2022-08-18T18:35:27.815Z,55.30
2022-08-18T18:37:54.623Z,56.00
2022-08-18T18:40:21.249Z,55.50
2022-08-18T18:42:47.774Z,55.20
2022-08-18T18:45:16.153Z,56.40
2022-08-18T18:47:42.612Z,56.00
2022-08-18T18:50:09.076Z,55.80
2022-08-18T18:52:35.554Z,56.30
2022-08-18T18:55:02.015Z,56.00
2022-08-18T18:57:28.476Z,55.90
2022-08-18T18:59:54.943Z,55.20
2022-08-18T19:02:34.844Z,56.20
2022-08-18T19:05:01.702Z,56.10
2022-08-18T19:09:55.186Z,56.00
2022-08-18T19:12:21.645Z,55.80
2022-08-18T19:17:18.614Z,55.20
2022-08-18T19:22:14.972Z,55.00
2022-08-18T19:24:43.591Z,54.80
2022-08-18T19:27:10.043Z,55.90
2022-08-18T19:29:36.499Z,55.90
2022-08-18T19:32:02.971Z,55.90
2022-08-18T19:34:31.235Z,55.90
2022-08-18T19:36:57.978Z,56.00
2022-08-18T19:39:24.444Z,55.00
2022-08-18T19:41:50.957Z,55.30
2022-08-18T19:44:17.426Z,55.80
2022-08-18T19:46:43.884Z,55.20
2022-08-18T19:49:10.330Z,54.60
2022-08-18T19:51:36.798Z,55.90
2022-08-18T19:56:30.254Z,55.30
2022-08-18T19:59:15.387Z,55.40
2022-08-18T20:01:43.173Z,55.50
2022-08-18T20:04:09.621Z,55.00
2022-08-18T20:09:03.064Z,55.70
2022-08-18T20:11:41.268Z,55.50
2022-08-18T20:14:08.695Z,55.60
2022-08-18T20:16:44.303Z,54.60
2022-08-18T20:24:09.805Z,55.50
2022-08-18T20:26:36.262Z,55.60
2022-08-18T20:29:02.750Z,55.20
2022-08-18T20:31:29.220Z,55.80
2022-08-18T20:33:55.679Z,54.00
2022-08-18T20:36:22.137Z,55.50
2022-08-18T20:38:48.598Z,55.30
2022-08-18T20:41:15.063Z,55.30
2022-08-18T20:43:41.557Z,55.70
2022-08-18T20:48:35.024Z,55.50
2022-08-18T20:51:01.495Z,55.50
2022-08-18T20:53:30.484Z,55.60
2022-08-18T20:55:59.344Z,55.80
2022-08-18T21:00:53.309Z,55.20
2022-08-18T21:03:19.795Z,55.20
2022-08-18T21:05:46.255Z,55.40
2022-08-18T21:13:06.697Z,55.90
2022-08-18T21:15:33.179Z,55.40
2022-08-18T21:17:59.638Z,55.60
2022-08-18T21:20:26.153Z,54.60
2022-08-18T21:22:52.739Z,55.40
2022-08-18T21:25:19.351Z,55.70
2022-08-18T21:27:45.808Z,55.80
2022-08-18T21:30:12.254Z,55.00
2022-08-18T21:32:38.737Z,54.90
2022-08-18T21:35:05.183Z,55.80
2022-08-18T21:37:31.650Z,55.10
2022-08-18T21:39:59.776Z,54.90
2022-08-18T21:42:26.288Z,55.50
2022-08-18T21:44:52.951Z,55.30
2022-08-18T21:47:19.398Z,55.20
2022-08-18T21:49:45.865Z,55.20
2022-08-18T21:52:16.381Z,54.80
2022-08-18T21:54:42.895Z,55.00
2022-08-18T21:57:11.159Z,55.40
2022-08-18T21:59:38.299Z,54.80
2022-08-18T22:02:04.776Z,54.10
2022-08-18T22:06:58.214Z,54.10
2022-08-18T22:09:24.698Z,55.40
2022-08-18T22:14:28.167Z,54.00
2022-08-18T22:16:54.974Z,55.00
2022-08-18T22:19:21.427Z,55.30
2022-08-18T22:24:14.885Z,55.20
2022-08-18T22:26:41.348Z,55.00
2022-08-18T22:41:22.858Z,53.70
2022-08-18T22:43:50.423Z,54.70
2022-08-18T22:46:24.277Z,53.90
2022-08-18T22:48:51.194Z,54.90
2022-08-18T22:51:17.659Z,55.20
2022-08-18T22:53:44.114Z,54.00
2022-08-18T22:56:10.581Z,55.00
2022-08-18T23:01:06.177Z,53.90
2022-08-18T23:03:35.799Z,55.20
2022-08-18T23:06:08.382Z,55.00
2022-08-18T23:08:54.957Z,55.00
2022-08-18T23:11:21.296Z,54.20
2022-08-18T23:13:48.690Z,55.20
2022-08-18T23:16:31.568Z,54.00
2022-08-18T23:18:58.772Z,55.10
2022-08-18T23:21:33.564Z,54.70
2022-08-18T23:24:01.556Z,54.80
2022-08-18T23:28:56.167Z,54.10
2022-08-18T23:31:22.623Z,54.90
2022-08-18T23:33:49.096Z,54.90
2022-08-18T23:36:15.575Z,54.30
2022-08-18T23:38:42.040Z,54.50
2022-08-18T23:41:08.484Z,54.50
2022-08-18T23:43:34.932Z,55.10
2022-08-18T23:46:01.377Z,54.50
2022-08-18T23:48:27.829Z,54.80
2022-08-18T23:50:54.303Z,54.10
2022-08-18T23:53:20.798Z,53.80
2022-08-18T23:55:47.292Z,53.90
2022-08-18T23:58:13.843Z,54.60
